San Diego, CA (92131)

3:41 PM PDT on September 18, 2014 (GMT -0700)
Scripps Ranch(North) | Change Station
CLOSE
Current Station
Personal Weather Station
Location: San Diego, CA
Elevation: 727 ft
Nearby Weather Stations

Elev 727 ft 32.93 °N, 117.09 °W | Updated 0 second ago

Partly Cloudy
Partly Cloudy
81.1 °F
Feels Like 83 °F
N
5.4
Wind Variable Wind from WSW
Gusts 8.3 mph

Today
High -- | Low -- °F
--% Chance of Precip.
Yesterday
High -- | Low -- °F
Precip. -- in
6:33 AM 6:50 PM
Waning Crescent, 24% visible
Pressure 29.83 in
Visibility 10.0 miles
Clouds Few 2500 ft
Heat Index 83 °F
Dew Point 64 °F
Humidity 56%
Rainfall 0.00 in
Snow Depth 0 in , 2 in , 0 in
UV 6 out of 12
Pollen 6.10 out of 12
Ozone Good
PM2.5 Good
Flu Activity Not available.
METAR KNKX 182155Z 27009KT 10SM FEW025 26/17 A2984 RMK AO2 SLP099 T02610172

More Conditions Fewer Conditions

Pressure 29.83 in
Visibility 10.0 miles
Clouds Few 2500 ft
Heat Index 83 °F
Dew Point 64 °F
Humidity 56%
Rainfall 0.00 in
Snow Depth 0 in , 2 in , 0 in
UV 6 out of 12
Pollen 6.10 out of 12
Ozone Good
PM2.5 Good
Flu Activity Not available.
METAR KNKX 182155Z 27009KT 10SM FEW025 26/17 A2984 RMK AO2 SLP099 T02610172

More Conditions Fewer Conditions

10-Day Weather Forecast

Almanac

Astronomy

Sep. 18, 2014 Rise Set
Actual Time 6:33 AM PDT 6:50 PM PDT
Civil Twilight 6:09 AM PDT 7:15 PM PDT
Nautical Twilight 5:40 AM PDT 7:43 PM PDT
Astronomical Twilight 5:11 AM PDT 8:13 PM PDT
Moon 1:42 AM PDT 3:33 PM PDT
Length of Visible Light 13h 05m
Length of Day
12h 16m
Tomorrow will be 2m 0s shorter.
Waning Crescent, 24% of the Moon is Illuminated
Today
Waning Crescent
Sep 24
New
Oct 1
First Quarter
Oct 8
Full
Oct 15
Last Quarter

Today's Extremes

State Highs State Lows

Community

WunderPhotos

Upload Photos

1,754,471 photos uploaded!

WunderBlogs® & News

Nearby

Air Quality

  Air Quality AQ Index Pollutant
Yesterday Good
OZONE
Yesterday Good
PM2.5
Current Good
PM2.5
Current Good
OZONE
Thursday Moderate
PM2.5
Thursday Moderate
OZONE
Friday Good
PM2.5
Friday Good
OZONE

Snow Depth

Station Depth Elevation
Echo Peak 0 in 7800 ft
CSS Lab 2 in 6900 ft
Burnside Lake 0 in 8139 ft
Adin Mountain 1 in 6200 ft
Leavitt Meadows 0 in 7200 ft

Earthquake Activity

City Distance Mag. Time & Date
La Quinta, California 55 miles 2.7 8:59 PM PDT
2014-09-15
Minimum magnitude displayed is 2.5.

Coastal Water Temperatures

Place Temperature
La Jolla, CA 72.0 °F
San Diego, CA 78.1 °F

Nearby Weather Stations